sensor_id;sensor_type;location;lat;lon;timestamp;temperature;humidity
8231;DHT22;4156;50.908;6.974;2023-08-24T00:02:01;23.70;99.90
8231;DHT22;4156;50.908;6.974;2023-08-24T00:04:27;23.60;99.90
8231;DHT22;4156;50.908;6.974;2023-08-24T00:06:53;23.70;99.90
8231;DHT22;4156;50.908;6.974;2023-08-24T00:09:19;23.70;99.90
8231;DHT22;4156;50.908;6.974;2023-08-24T00:11:45;23.60;99.90
8231;DHT22;4156;50.908;6.974;2023-08-24T00:14:10;23.60;99.90
8231;DHT22;4156;50.908;6.974;2023-08-24T00:16:36;23.60;99.90
8231;DHT22;4156;50.908;6.974;2023-08-24T00:19:02;23.50;99.90
8231;DHT22;4156;50.908;6.974;2023-08-24T00:21:28;23.50;99.90
8231;DHT22;4156;50.908;6.974;2023-08-24T00:23:54;23.50;99.90
8231;DHT22;4156;50.908;6.974;2023-08-24T00:26:19;23.40;99.90
8231;DHT22;4156;50.908;6.974;2023-08-24T00:28:45;23.30;99.90
8231;DHT22;4156;50.908;6.974;2023-08-24T00:31:11;23.40;99.90
8231;DHT22;4156;50.908;6.974;2023-08-24T00:33:37;23.30;99.90
8231;DHT22;4156;50.908;6.974;2023-08-24T00:36:04;23.30;99.90
8231;DHT22;4156;50.908;6.974;2023-08-24T00:38:30;23.30;99.90
8231;DHT22;4156;50.908;6.974;2023-08-24T00:40:57;23.30;99.90
8231;DHT22;4156;50.908;6.974;2023-08-24T00:43:25;23.30;99.90
8231;DHT22;4156;50.908;6.974;2023-08-24T00:45:51;23.30;99.90
8231;DHT22;4156;50.908;6.974;2023-08-24T00:48:20;23.30;99.90
8231;DHT22;4156;50.908;6.974;2023-08-24T00:50:54;23.20;99.90
8231;DHT22;4156;50.908;6.974;2023-08-24T00:53:21;23.30;99.90
8231;DHT22;4156;50.908;6.974;2023-08-24T00:55:49;23.20;99.90
8231;DHT22;4156;50.908;6.974;2023-08-24T00:58:15;23.20;99.90
8231;DHT22;4156;50.908;6.974;2023-08-24T01:00:41;23.20;99.90
8231;DHT22;4156;50.908;6.974;2023-08-24T01:03:06;23.20;99.90
8231;DHT22;4156;50.908;6.974;2023-08-24T01:05:32;23.20;99.90
8231;DHT22;4156;50.908;6.974;2023-08-24T01:07:57;23.20;99.90
8231;DHT22;4156;50.908;6.974;2023-08-24T01:10:24;23.20;99.90
8231;DHT22;4156;50.908;6.974;2023-08-24T01:13:13;23.10;99.90
8231;DHT22;4156;50.908;6.974;2023-08-24T01:15:51;23.10;99.90
8231;DHT22;4156;50.908;6.974;2023-08-24T01:18:21;23.10;99.90
8231;DHT22;4156;50.908;6.974;2023-08-24T01:20:48;23.00;99.90
8231;DHT22;4156;50.908;6.974;2023-08-24T01:28:13;23.00;99.90
8231;DHT22;4156;50.908;6.974;2023-08-24T01:30:40;23.00;99.90
8231;DHT22;4156;50.908;6.974;2023-08-24T01:33:05;23.00;99.90
8231;DHT22;4156;50.908;6.974;2023-08-24T01:35:37;22.90;99.90
8231;DHT22;4156;50.908;6.974;2023-08-24T01:38:03;22.80;99.90
8231;DHT22;4156;50.908;6.974;2023-08-24T01:40:47;22.90;99.90
8231;DHT22;4156;50.908;6.974;2023-08-24T01:43:14;22.90;99.90
8231;DHT22;4156;50.908;6.974;2023-08-24T01:45:42;22.80;99.90
8231;DHT22;4156;50.908;6.974;2023-08-24T01:48:09;22.70;99.90
8231;DHT22;4156;50.908;6.974;2023-08-24T01:50:35;22.70;99.90
8231;DHT22;4156;50.908;6.974;2023-08-24T01:53:02;22.80;99.90
8231;DHT22;4156;50.908;6.974;2023-08-24T01:55:28;22.70;99.90
8231;DHT22;4156;50.908;6.974;2023-08-24T01:57:56;22.70;99.90
8231;DHT22;4156;50.908;6.974;2023-08-24T02:00:22;22.60;99.90
8231;DHT22;4156;50.908;6.974;2023-08-24T02:02:48;22.60;99.90
8231;DHT22;4156;50.908;6.974;2023-08-24T02:05:13;22.60;99.90
8231;DHT22;4156;50.908;6.974;2023-08-24T02:07:40;22.60;99.90
8231;DHT22;4156;50.908;6.974;2023-08-24T02:10:08;22.60;99.90
8231;DHT22;4156;50.908;6.974;2023-08-24T02:12:34;22.60;99.90
8231;DHT22;4156;50.908;6.974;2023-08-24T02:14:59;22.50;99.90
8231;DHT22;4156;50.908;6.974;2023-08-24T02:17:26;22.50;99.90
8231;DHT22;4156;50.908;6.974;2023-08-24T02:19:52;22.50;99.90
8231;DHT22;4156;50.908;6.974;2023-08-24T02:22:17;22.50;99.90
8231;DHT22;4156;50.908;6.974;2023-08-24T02:24:43;22.50;99.90
8231;DHT22;4156;50.908;6.974;2023-08-24T02:27:09;22.50;99.90
8231;DHT22;4156;50.908;6.974;2023-08-24T02:29:34;22.40;99.90
8231;DHT22;4156;50.908;6.974;2023-08-24T02:32:00;22.40;99.90
8231;DHT22;4156;50.908;6.974;2023-08-24T02:34:25;22.40;99.90
8231;DHT22;4156;50.908;6.974;2023-08-24T02:36:51;22.40;99.90
8231;DHT22;4156;50.908;6.974;2023-08-24T02:39:17;22.40;99.90
8231;DHT22;4156;50.908;6.974;2023-08-24T02:41:42;22.40;99.90
8231;DHT22;4156;50.908;6.974;2023-08-24T02:44:08;22.40;99.90
8231;DHT22;4156;50.908;6.974;2023-08-24T02:46:35;22.40;99.90
8231;DHT22;4156;50.908;6.974;2023-08-24T02:49:00;22.40;99.90
8231;DHT22;4156;50.908;6.974;2023-08-24T02:51:26;22.40;99.90
8231;DHT22;4156;50.908;6.974;2023-08-24T02:53:51;22.40;99.90
8231;DHT22;4156;50.908;6.974;2023-08-24T02:56:17;22.30;99.90
8231;DHT22;4156;50.908;6.974;2023-08-24T02:58:42;22.30;99.90
8231;DHT22;4156;50.908;6.974;2023-08-24T03:01:08;22.30;99.90
8231;DHT22;4156;50.908;6.974;2023-08-24T03:03:34;22.30;99.90
8231;DHT22;4156;50.908;6.974;2023-08-24T03:06:02;22.30;99.90
8231;DHT22;4156;50.908;6.974;2023-08-24T03:08:32;22.30;99.90
8231;DHT22;4156;50.908;6.974;2023-08-24T03:10:58;22.30;99.90
8231;DHT22;4156;50.908;6.974;2023-08-24T03:13:24;22.30;99.90
8231;DHT22;4156;50.908;6.974;2023-08-24T03:15:50;22.30;99.90
8231;DHT22;4156;50.908;6.974;2023-08-24T03:18:16;22.10;99.90
8231;DHT22;4156;50.908;6.974;2023-08-24T03:20:43;22.20;99.90
8231;DHT22;4156;50.908;6.974;2023-08-24T03:23:08;22.20;99.90
8231;DHT22;4156;50.908;6.974;2023-08-24T03:25:39;22.20;99.90
8231;DHT22;4156;50.908;6.974;2023-08-24T03:28:05;22.20;99.90
8231;DHT22;4156;50.908;6.974;2023-08-24T03:30:33;22.10;99.90
8231;DHT22;4156;50.908;6.974;2023-08-24T03:32:59;22.10;99.90
8231;DHT22;4156;50.908;6.974;2023-08-24T03:35:25;22.10;99.90
8231;DHT22;4156;50.908;6.974;2023-08-24T03:37:51;22.10;99.90
8231;DHT22;4156;50.908;6.974;2023-08-24T03:40:16;22.10;99.90
8231;DHT22;4156;50.908;6.974;2023-08-24T03:42:42;22.00;99.90
8231;DHT22;4156;50.908;6.974;2023-08-24T03:45:08;22.00;99.90
8231;DHT22;4156;50.908;6.974;2023-08-24T03:47:33;22.00;99.90
8231;DHT22;4156;50.908;6.974;2023-08-24T03:49:59;22.00;99.90
8231;DHT22;4156;50.908;6.974;2023-08-24T03:52:25;22.00;99.90
8231;DHT22;4156;50.908;6.974;2023-08-24T03:54:51;22.10;99.90
8231;DHT22;4156;50.908;6.974;2023-08-24T03:57:16;22.00;99.90
8231;DHT22;4156;50.908;6.974;2023-08-24T03:59:42;22.00;99.90
8231;DHT22;4156;50.908;6.974;2023-08-24T04:02:07;22.10;99.90
8231;DHT22;4156;50.908;6.974;2023-08-24T04:04:33;22.10;99.90
8231;DHT22;4156;50.908;6.974;2023-08-24T04:06:58;22.10;99.90
8231;DHT22;4156;50.908;6.974;2023-08-24T04:09:25;22.10;99.90
8231;DHT22;4156;50.908;6.974;2023-08-24T04:11:51;22.10;99.90
8231;DHT22;4156;50.908;6.974;2023-08-24T04:14:16;22.10;99.90
8231;DHT22;4156;50.908;6.974;2023-08-24T04:16:42;22.10;99.90
8231;DHT22;4156;50.908;6.974;2023-08-24T04:19:08;22.10;99.90
8231;DHT22;4156;50.908;6.974;2023-08-24T04:21:34;22.10;99.90
8231;DHT22;4156;50.908;6.974;2023-08-24T04:23:59;22.00;99.90
8231;DHT22;4156;50.908;6.974;2023-08-24T04:26:25;22.10;99.90
8231;DHT22;4156;50.908;6.974;2023-08-24T04:28:50;22.10;99.90
8231;DHT22;4156;50.908;6.974;2023-08-24T04:31:16;22.10;99.90
8231;DHT22;4156;50.908;6.974;2023-08-24T04:33:41;22.20;99.90
8231;DHT22;4156;50.908;6.974;2023-08-24T04:36:07;22.20;99.90
8231;DHT22;4156;50.908;6.974;2023-08-24T04:38:32;22.30;99.90
8231;DHT22;4156;50.908;6.974;2023-08-24T04:40:58;22.30;99.90
8231;DHT22;4156;50.908;6.974;2023-08-24T04:43:24;22.30;99.90
8231;DHT22;4156;50.908;6.974;2023-08-24T04:45:54;22.30;99.90
8231;DHT22;4156;50.908;6.974;2023-08-24T04:48:21;22.20;99.90
8231;DHT22;4156;50.908;6.974;2023-08-24T04:50:47;22.30;99.90
8231;DHT22;4156;50.908;6.974;2023-08-24T04:53:15;22.00;99.90
8231;DHT22;4156;50.908;6.974;2023-08-24T04:55:42;22.10;99.90
8231;DHT22;4156;50.908;6.974;2023-08-24T04:58:08;22.00;99.90
8231;DHT22;4156;50.908;6.974;2023-08-24T05:00:34;22.20;99.90
8231;DHT22;4156;50.908;6.974;2023-08-24T05:03:04;22.10;99.90
8231;DHT22;4156;50.908;6.974;2023-08-24T05:05:30;22.10;99.90
8231;DHT22;4156;50.908;6.974;2023-08-24T05:07:56;22.00;99.90
8231;DHT22;4156;50.908;6.974;2023-08-24T05:10:22;21.90;99.90
8231;DHT22;4156;50.908;6.974;2023-08-24T05:12:48;21.90;99.90
8231;DHT22;4156;50.908;6.974;2023-08-24T05:15:13;22.00;99.90
8231;DHT22;4156;50.908;6.974;2023-08-24T05:17:40;22.00;99.90
8231;DHT22;4156;50.908;6.974;2023-08-24T05:20:06;21.90;99.90
8231;DHT22;4156;50.908;6.974;2023-08-24T05:22:33;21.90;99.90
8231;DHT22;4156;50.908;6.974;2023-08-24T05:24:59;21.80;99.90
8231;DHT22;4156;50.908;6.974;2023-08-24T05:27:25;21.80;99.90
8231;DHT22;4156;50.908;6.974;2023-08-24T05:29:50;21.80;99.90
8231;DHT22;4156;50.908;6.974;2023-08-24T05:32:16;21.70;99.90
8231;DHT22;4156;50.908;6.974;2023-08-24T05:34:42;21.70;99.90
8231;DHT22;4156;50.908;6.974;2023-08-24T05:37:07;21.60;99.90
8231;DHT22;4156;50.908;6.974;2023-08-24T05:39:33;21.60;99.90
8231;DHT22;4156;50.908;6.974;2023-08-24T05:41:58;21.50;99.90
8231;DHT22;4156;50.908;6.974;2023-08-24T05:44:24;21.50;99.90
8231;DHT22;4156;50.908;6.974;2023-08-24T05:46:49;21.50;99.90
8231;DHT22;4156;50.908;6.974;2023-08-24T05:49:15;21.50;99.90
8231;DHT22;4156;50.908;6.974;2023-08-24T05:51:40;21.50;99.90
8231;DHT22;4156;50.908;6.974;2023-08-24T05:54:06;21.50;99.90
8231;DHT22;4156;50.908;6.974;2023-08-24T05:56:31;21.50;99.90
8231;DHT22;4156;50.908;6.974;2023-08-24T05:59:00;21.50;99.90
8231;DHT22;4156;50.908;6.974;2023-08-24T06:01:25;21.60;99.90
8231;DHT22;4156;50.908;6.974;2023-08-24T06:03:51;21.60;99.90
8231;DHT22;4156;50.908;6.974;2023-08-24T06:06:17;21.60;99.90
8231;DHT22;4156;50.908;6.974;2023-08-24T06:08:43;21.70;99.90
8231;DHT22;4156;50.908;6.974;2023-08-24T06:11:09;21.60;99.90
8231;DHT22;4156;50.908;6.974;2023-08-24T06:13:35;21.70;99.90
8231;DHT22;4156;50.908;6.974;2023-08-24T06:16:00;21.70;99.90
8231;DHT22;4156;50.908;6.974;2023-08-24T06:18:27;21.60;99.90
8231;DHT22;4156;50.908;6.974;2023-08-24T06:20:53;21.50;99.90
8231;DHT22;4156;50.908;6.974;2023-08-24T06:23:19;21.60;99.90
8231;DHT22;4156;50.908;6.974;2023-08-24T06:25:45;21.50;99.90
8231;DHT22;4156;50.908;6.974;2023-08-24T06:28:12;21.50;99.90
8231;DHT22;4156;50.908;6.974;2023-08-24T06:30:41;21.60;99.90
8231;DHT22;4156;50.908;6.974;2023-08-24T06:33:08;21.70;99.90
8231;DHT22;4156;50.908;6.974;2023-08-24T06:35:36;21.80;99.90
8231;DHT22;4156;50.908;6.974;2023-08-24T06:38:03;21.80;99.90
8231;DHT22;4156;50.908;6.974;2023-08-24T06:40:29;21.80;99.90
8231;DHT22;4156;50.908;6.974;2023-08-24T06:42:55;21.90;99.90
8231;DHT22;4156;50.908;6.974;2023-08-24T06:45:21;22.00;99.90
8231;DHT22;4156;50.908;6.974;2023-08-24T06:47:46;22.10;99.90
8231;DHT22;4156;50.908;6.974;2023-08-24T06:50:12;22.10;99.90
8231;DHT22;4156;50.908;6.974;2023-08-24T06:52:38;22.20;99.90
8231;DHT22;4156;50.908;6.974;2023-08-24T06:55:04;22.20;99.90
8231;DHT22;4156;50.908;6.974;2023-08-24T06:57:30;22.20;99.90
8231;DHT22;4156;50.908;6.974;2023-08-24T06:59:55;22.30;99.90
8231;DHT22;4156;50.908;6.974;2023-08-24T07:02:21;22.30;99.90
8231;DHT22;4156;50.908;6.974;2023-08-24T07:04:48;22.40;99.90
8231;DHT22;4156;50.908;6.974;2023-08-24T07:07:13;22.40;99.90
8231;DHT22;4156;50.908;6.974;2023-08-24T07:09:39;22.50;99.90
8231;DHT22;4156;50.908;6.974;2023-08-24T07:12:05;22.50;99.90
8231;DHT22;4156;50.908;6.974;2023-08-24T07:14:33;22.20;99.90
8231;DHT22;4156;50.908;6.974;2023-08-24T07:16:59;22.60;99.90
8231;DHT22;4156;50.908;6.974;2023-08-24T07:19:24;22.70;99.90
8231;DHT22;4156;50.908;6.974;2023-08-24T07:21:50;22.70;99.90
8231;DHT22;4156;50.908;6.974;2023-08-24T07:24:16;22.70;99.90
8231;DHT22;4156;50.908;6.974;2023-08-24T07:26:44;22.70;99.90
8231;DHT22;4156;50.908;6.974;2023-08-24T07:29:10;22.80;99.90
8231;DHT22;4156;50.908;6.974;2023-08-24T07:31:36;23.00;99.90
8231;DHT22;4156;50.908;6.974;2023-08-24T07:34:02;23.00;99.90
8231;DHT22;4156;50.908;6.974;2023-08-24T07:36:29;23.10;99.90
8231;DHT22;4156;50.908;6.974;2023-08-24T07:38:54;23.10;99.90
8231;DHT22;4156;50.908;6.974;2023-08-24T07:41:20;23.20;99.90
8231;DHT22;4156;50.908;6.974;2023-08-24T07:43:45;23.20;99.90
8231;DHT22;4156;50.908;6.974;2023-08-24T07:46:11;23.20;99.90
8231;DHT22;4156;50.908;6.974;2023-08-24T07:48:37;23.20;99.90
8231;DHT22;4156;50.908;6.974;2023-08-24T07:51:02;23.20;99.90
8231;DHT22;4156;50.908;6.974;2023-08-24T07:53:28;23.20;99.90
8231;DHT22;4156;50.908;6.974;2023-08-24T07:55:54;23.30;99.90
8231;DHT22;4156;50.908;6.974;2023-08-24T07:58:23;23.30;99.90
8231;DHT22;4156;50.908;6.974;2023-08-24T08:00:51;23.30;99.90
8231;DHT22;4156;50.908;6.974;2023-08-24T08:03:20;23.30;99.90
8231;DHT22;4156;50.908;6.974;2023-08-24T08:05:46;23.30;99.90
8231;DHT22;4156;50.908;6.974;2023-08-24T08:08:13;23.30;99.90
8231;DHT22;4156;50.908;6.974;2023-08-24T08:10:40;23.40;99.90
8231;DHT22;4156;50.908;6.974;2023-08-24T08:13:06;23.50;99.90
8231;DHT22;4156;50.908;6.974;2023-08-24T08:15:31;23.50;99.90
8231;DHT22;4156;50.908;6.974;2023-08-24T08:17:57;23.50;99.90
8231;DHT22;4156;50.908;6.974;2023-08-24T08:20:22;23.60;99.90
8231;DHT22;4156;50.908;6.974;2023-08-24T08:22:48;23.60;99.90
8231;DHT22;4156;50.908;6.974;2023-08-24T08:25:14;23.70;99.90
8231;DHT22;4156;50.908;6.974;2023-08-24T08:27:39;23.70;99.90
8231;DHT22;4156;50.908;6.974;2023-08-24T08:30:05;23.70;99.90
8231;DHT22;4156;50.908;6.974;2023-08-24T08:32:31;23.70;99.90
8231;DHT22;4156;50.908;6.974;2023-08-24T08:34:57;23.80;99.90
8231;DHT22;4156;50.908;6.974;2023-08-24T08:37:24;23.80;99.90
8231;DHT22;4156;50.908;6.974;2023-08-24T08:39:49;23.80;99.90
8231;DHT22;4156;50.908;6.974;2023-08-24T08:42:15;23.80;99.90
8231;DHT22;4156;50.908;6.974;2023-08-24T08:44:41;23.80;99.90
8231;DHT22;4156;50.908;6.974;2023-08-24T08:47:10;23.80;99.90
8231;DHT22;4156;50.908;6.974;2023-08-24T08:49:38;23.90;99.90
8231;DHT22;4156;50.908;6.974;2023-08-24T08:52:05;23.90;99.90
8231;DHT22;4156;50.908;6.974;2023-08-24T08:54:31;23.90;99.90
8231;DHT22;4156;50.908;6.974;2023-08-24T08:56:58;24.00;99.90
8231;DHT22;4156;50.908;6.974;2023-08-24T08:59:27;24.00;99.90
8231;DHT22;4156;50.908;6.974;2023-08-24T09:01:55;24.00;99.90
8231;DHT22;4156;50.908;6.974;2023-08-24T09:04:22;24.00;99.90
8231;DHT22;4156;50.908;6.974;2023-08-24T09:06:48;24.10;99.90
8231;DHT22;4156;50.908;6.974;2023-08-24T09:09:15;24.10;99.90
8231;DHT22;4156;50.908;6.974;2023-08-24T09:11:41;24.10;99.90
8231;DHT22;4156;50.908;6.974;2023-08-24T09:14:07;24.20;99.90
8231;DHT22;4156;50.908;6.974;2023-08-24T09:16:33;24.20;99.90
8231;DHT22;4156;50.908;6.974;2023-08-24T09:19:00;24.30;99.90
8231;DHT22;4156;50.908;6.974;2023-08-24T09:21:29;24.30;99.90
8231;DHT22;4156;50.908;6.974;2023-08-24T09:23:56;24.30;99.90
8231;DHT22;4156;50.908;6.974;2023-08-24T09:26:33;24.40;99.90
8231;DHT22;4156;50.908;6.974;2023-08-24T09:29:00;24.40;99.90
8231;DHT22;4156;50.908;6.974;2023-08-24T09:31:36;24.40;99.90
8231;DHT22;4156;50.908;6.974;2023-08-24T09:34:02;24.50;99.90
8231;DHT22;4156;50.908;6.974;2023-08-24T09:36:31;24.50;99.90
8231;DHT22;4156;50.908;6.974;2023-08-24T09:38:59;24.60;99.90
8231;DHT22;4156;50.908;6.974;2023-08-24T09:41:40;24.60;99.90
8231;DHT22;4156;50.908;6.974;2023-08-24T09:44:06;24.60;99.90
8231;DHT22;4156;50.908;6.974;2023-08-24T09:46:32;24.60;99.90
8231;DHT22;4156;50.908;6.974;2023-08-24T09:48:57;24.70;99.90
8231;DHT22;4156;50.908;6.974;2023-08-24T09:51:27;24.70;99.90
8231;DHT22;4156;50.908;6.974;2023-08-24T09:53:57;24.70;99.90
8231;DHT22;4156;50.908;6.974;2023-08-24T09:56:25;24.70;99.90
8231;DHT22;4156;50.908;6.974;2023-08-24T09:58:54;24.70;99.90
8231;DHT22;4156;50.908;6.974;2023-08-24T10:01:20;24.70;99.90
8231;DHT22;4156;50.908;6.974;2023-08-24T10:03:51;24.80;99.90
8231;DHT22;4156;50.908;6.974;2023-08-24T10:06:27;24.80;99.90
8231;DHT22;4156;50.908;6.974;2023-08-24T10:08:56;24.80;99.90
8231;DHT22;4156;50.908;6.974;2023-08-24T10:11:28;24.80;99.90
8231;DHT22;4156;50.908;6.974;2023-08-24T10:14:04;24.80;99.90
8231;DHT22;4156;50.908;6.974;2023-08-24T10:16:35;24.90;99.90
8231;DHT22;4156;50.908;6.974;2023-08-24T10:19:04;24.90;99.90
8231;DHT22;4156;50.908;6.974;2023-08-24T10:21:30;24.90;99.90
8231;DHT22;4156;50.908;6.974;2023-08-24T10:23:57;25.00;99.90
8231;DHT22;4156;50.908;6.974;2023-08-24T10:26:23;25.10;99.90
8231;DHT22;4156;50.908;6.974;2023-08-24T10:28:50;25.10;99.90
8231;DHT22;4156;50.908;6.974;2023-08-24T10:31:17;25.10;99.90
8231;DHT22;4156;50.908;6.974;2023-08-24T10:33:49;25.20;99.90
8231;DHT22;4156;50.908;6.974;2023-08-24T10:36:17;25.20;99.90
8231;DHT22;4156;50.908;6.974;2023-08-24T10:38:56;25.20;99.90
8231;DHT22;4156;50.908;6.974;2023-08-24T10:41:29;25.30;99.90
8231;DHT22;4156;50.908;6.974;2023-08-24T10:44:07;25.30;99.90
8231;DHT22;4156;50.908;6.974;2023-08-24T10:47:16;25.30;99.90
8231;DHT22;4156;50.908;6.974;2023-08-24T10:50:34;25.30;99.90
8231;DHT22;4156;50.908;6.974;2023-08-24T10:53:10;25.30;99.90
8231;DHT22;4156;50.908;6.974;2023-08-24T10:56:15;25.40;99.90
8231;DHT22;4156;50.908;6.974;2023-08-24T10:58:47;25.40;99.90
8231;DHT22;4156;50.908;6.974;2023-08-24T11:04:35;25.50;99.90
8231;DHT22;4156;50.908;6.974;2023-08-24T11:07:16;25.50;99.90
8231;DHT22;4156;50.908;6.974;2023-08-24T11:09:46;25.50;99.90
8231;DHT22;4156;50.908;6.974;2023-08-24T11:12:21;25.40;99.90
8231;DHT22;4156;50.908;6.974;2023-08-24T11:14:56;25.50;99.90
8231;DHT22;4156;50.908;6.974;2023-08-24T11:17:29;25.50;99.90
8231;DHT22;4156;50.908;6.974;2023-08-24T11:19:57;25.50;99.90
8231;DHT22;4156;50.908;6.974;2023-08-24T11:22:26;25.50;99.90
8231;DHT22;4156;50.908;6.974;2023-08-24T11:24:52;25.50;99.90
8231;DHT22;4156;50.908;6.974;2023-08-24T11:27:22;25.60;99.90
8231;DHT22;4156;50.908;6.974;2023-08-24T11:29:59;25.70;99.90
8231;DHT22;4156;50.908;6.974;2023-08-24T11:32:25;25.70;99.90
8231;DHT22;4156;50.908;6.974;2023-08-24T11:34:54;25.70;99.90
8231;DHT22;4156;50.908;6.974;2023-08-24T11:37:28;25.70;99.90
8231;DHT22;4156;50.908;6.974;2023-08-24T11:40:16;25.70;99.90
8231;DHT22;4156;50.908;6.974;2023-08-24T11:42:44;25.70;99.90
8231;DHT22;4156;50.908;6.974;2023-08-24T11:45:13;25.70;99.90
8231;DHT22;4156;50.908;6.974;2023-08-24T11:47:41;25.70;99.90
8231;DHT22;4156;50.908;6.974;2023-08-24T11:50:08;25.70;99.90
8231;DHT22;4156;50.908;6.974;2023-08-24T11:52:39;25.70;99.90
8231;DHT22;4156;50.908;6.974;2023-08-24T11:55:07;25.70;99.90
8231;DHT22;4156;50.908;6.974;2023-08-24T11:57:39;25.70;99.90
8231;DHT22;4156;50.908;6.974;2023-08-24T12:00:07;25.70;99.90
8231;DHT22;4156;50.908;6.974;2023-08-24T12:02:37;25.70;99.90
8231;DHT22;4156;50.908;6.974;2023-08-24T12:05:29;25.70;99.90
8231;DHT22;4156;50.908;6.974;2023-08-24T12:08:03;25.80;99.90
8231;DHT22;4156;50.908;6.974;2023-08-24T12:10:30;25.80;99.90
8231;DHT22;4156;50.908;6.974;2023-08-24T12:13:05;25.80;99.90
8231;DHT22;4156;50.908;6.974;2023-08-24T12:15:34;25.80;99.90
8231;DHT22;4156;50.908;6.974;2023-08-24T12:18:11;25.80;99.90
8231;DHT22;4156;50.908;6.974;2023-08-24T12:20:37;25.80;99.90
8231;DHT22;4156;50.908;6.974;2023-08-24T12:23:04;25.80;99.90
8231;DHT22;4156;50.908;6.974;2023-08-24T12:25:29;25.90;99.90
8231;DHT22;4156;50.908;6.974;2023-08-24T12:28:13;25.90;99.90
8231;DHT22;4156;50.908;6.974;2023-08-24T12:30:53;25.90;99.90
8231;DHT22;4156;50.908;6.974;2023-08-24T12:33:33;25.90;99.90
8231;DHT22;4156;50.908;6.974;2023-08-24T12:36:03;25.90;99.90
8231;DHT22;4156;50.908;6.974;2023-08-24T12:38:29;25.90;99.90
8231;DHT22;4156;50.908;6.974;2023-08-24T12:40:56;25.90;99.90
8231;DHT22;4156;50.908;6.974;2023-08-24T12:43:42;25.90;99.90
8231;DHT22;4156;50.908;6.974;2023-08-24T12:47:13;25.90;99.90
8231;DHT22;4156;50.908;6.974;2023-08-24T12:50:14;25.90;99.90
8231;DHT22;4156;50.908;6.974;2023-08-24T12:52:40;25.90;99.90
8231;DHT22;4156;50.908;6.974;2023-08-24T12:55:07;25.90;99.90
8231;DHT22;4156;50.908;6.974;2023-08-24T12:57:32;25.90;99.90
8231;DHT22;4156;50.908;6.974;2023-08-24T12:59:59;26.00;99.90
8231;DHT22;4156;50.908;6.974;2023-08-24T13:02:25;26.00;99.90
8231;DHT22;4156;50.908;6.974;2023-08-24T13:04:51;26.00;99.90
8231;DHT22;4156;50.908;6.974;2023-08-24T13:07:17;26.00;99.90
8231;DHT22;4156;50.908;6.974;2023-08-24T13:09:44;26.00;99.90
8231;DHT22;4156;50.908;6.974;2023-08-24T13:12:09;26.00;99.90
8231;DHT22;4156;50.908;6.974;2023-08-24T13:14:37;26.00;99.90
8231;DHT22;4156;50.908;6.974;2023-08-24T13:17:03;26.00;99.90
8231;DHT22;4156;50.908;6.974;2023-08-24T13:19:30;26.00;99.90
8231;DHT22;4156;50.908;6.974;2023-08-24T13:21:55;26.00;99.90
8231;DHT22;4156;50.908;6.974;2023-08-24T13:24:22;26.00;99.90
8231;DHT22;4156;50.908;6.974;2023-08-24T13:26:48;25.90;99.90
8231;DHT22;4156;50.908;6.974;2023-08-24T13:29:14;25.90;99.90
8231;DHT22;4156;50.908;6.974;2023-08-24T13:31:40;25.90;99.90
8231;DHT22;4156;50.908;6.974;2023-08-24T13:34:29;25.90;99.90
8231;DHT22;4156;50.908;6.974;2023-08-24T13:36:56;25.90;99.90
8231;DHT22;4156;50.908;6.974;2023-08-24T13:39:26;25.90;99.90
8231;DHT22;4156;50.908;6.974;2023-08-24T13:41:59;25.90;99.90
8231;DHT22;4156;50.908;6.974;2023-08-24T13:44:26;25.90;99.90
8231;DHT22;4156;50.908;6.974;2023-08-24T13:46:51;25.90;99.90
8231;DHT22;4156;50.908;6.974;2023-08-24T13:49:20;25.90;99.90
8231;DHT22;4156;50.908;6.974;2023-08-24T13:51:46;25.90;99.90
8231;DHT22;4156;50.908;6.974;2023-08-24T13:54:16;25.90;99.90
8231;DHT22;4156;50.908;6.974;2023-08-24T13:56:46;25.90;99.90
8231;DHT22;4156;50.908;6.974;2023-08-24T13:59:14;25.90;99.90
8231;DHT22;4156;50.908;6.974;2023-08-24T14:01:41;25.90;99.90
8231;DHT22;4156;50.908;6.974;2023-08-24T14:04:07;26.00;99.90
8231;DHT22;4156;50.908;6.974;2023-08-24T14:06:33;26.00;99.90
8231;DHT22;4156;50.908;6.974;2023-08-24T14:09:00;26.00;99.90
8231;DHT22;4156;50.908;6.974;2023-08-24T14:11:27;26.00;99.90
8231;DHT22;4156;50.908;6.974;2023-08-24T14:13:52;26.00;99.90
8231;DHT22;4156;50.908;6.974;2023-08-24T14:16:18;26.00;99.90
8231;DHT22;4156;50.908;6.974;2023-08-24T14:18:45;26.00;99.90
8231;DHT22;4156;50.908;6.974;2023-08-24T14:21:11;26.00;99.90
8231;DHT22;4156;50.908;6.974;2023-08-24T14:23:37;26.00;99.90
8231;DHT22;4156;50.908;6.974;2023-08-24T14:26:02;26.00;99.90
8231;DHT22;4156;50.908;6.974;2023-08-24T14:28:51;26.00;99.90
8231;DHT22;4156;50.908;6.974;2023-08-24T14:31:19;25.90;99.90
8231;DHT22;4156;50.908;6.974;2023-08-24T14:33:44;25.90;99.90
8231;DHT22;4156;50.908;6.974;2023-08-24T14:36:10;25.90;99.90
8231;DHT22;4156;50.908;6.974;2023-08-24T14:38:39;25.90;99.90
8231;DHT22;4156;50.908;6.974;2023-08-24T14:41:06;25.90;99.90
8231;DHT22;4156;50.908;6.974;2023-08-24T14:43:31;25.90;99.90
8231;DHT22;4156;50.908;6.974;2023-08-24T14:45:57;25.80;99.90
8231;DHT22;4156;50.908;6.974;2023-08-24T14:48:22;25.80;99.90
8231;DHT22;4156;50.908;6.974;2023-08-24T14:50:48;25.80;99.90
8231;DHT22;4156;50.908;6.974;2023-08-24T14:53:14;25.80;99.90
8231;DHT22;4156;50.908;6.974;2023-08-24T14:55:40;25.80;99.90
8231;DHT22;4156;50.908;6.974;2023-08-24T14:58:05;25.60;99.90
8231;DHT22;4156;50.908;6.974;2023-08-24T15:00:31;25.60;99.90
8231;DHT22;4156;50.908;6.974;2023-08-24T15:02:56;25.50;99.90
8231;DHT22;4156;50.908;6.974;2023-08-24T15:05:22;25.50;99.90
8231;DHT22;4156;50.908;6.974;2023-08-24T15:07:49;25.40;99.90
8231;DHT22;4156;50.908;6.974;2023-08-24T15:10:14;25.40;99.90
8231;DHT22;4156;50.908;6.974;2023-08-24T15:12:40;25.40;99.90
8231;DHT22;4156;50.908;6.974;2023-08-24T15:15:06;25.40;99.90
8231;DHT22;4156;50.908;6.974;2023-08-24T15:17:32;25.30;99.90
8231;DHT22;4156;50.908;6.974;2023-08-24T15:19:57;25.20;99.90
8231;DHT22;4156;50.908;6.974;2023-08-24T15:22:23;25.20;99.90
8231;DHT22;4156;50.908;6.974;2023-08-24T15:24:51;25.20;99.90
8231;DHT22;4156;50.908;6.974;2023-08-24T15:27:16;25.20;99.90
8231;DHT22;4156;50.908;6.974;2023-08-24T15:29:43;25.10;99.90
8231;DHT22;4156;50.908;6.974;2023-08-24T15:32:09;25.10;99.90
8231;DHT22;4156;50.908;6.974;2023-08-24T15:34:35;25.00;99.90
8231;DHT22;4156;50.908;6.974;2023-08-24T15:37:00;25.00;99.90
8231;DHT22;4156;50.908;6.974;2023-08-24T15:39:26;25.00;99.90
8231;DHT22;4156;50.908;6.974;2023-08-24T15:41:52;24.90;99.90
8231;DHT22;4156;50.908;6.974;2023-08-24T15:44:17;25.00;99.90
8231;DHT22;4156;50.908;6.974;2023-08-24T15:46:43;24.90;99.90
8231;DHT22;4156;50.908;6.974;2023-08-24T15:49:08;24.90;99.90
8231;DHT22;4156;50.908;6.974;2023-08-24T15:51:34;24.80;99.90
8231;DHT22;4156;50.908;6.974;2023-08-24T15:54:00;24.80;99.90
8231;DHT22;4156;50.908;6.974;2023-08-24T15:56:26;24.70;99.90
8231;DHT22;4156;50.908;6.974;2023-08-24T15:58:51;24.70;99.90
8231;DHT22;4156;50.908;6.974;2023-08-24T16:01:17;24.70;99.90
8231;DHT22;4156;50.908;6.974;2023-08-24T16:03:42;24.70;99.90
8231;DHT22;4156;50.908;6.974;2023-08-24T16:06:08;24.70;99.90
8231;DHT22;4156;50.908;6.974;2023-08-24T16:08:34;24.60;99.90
8231;DHT22;4156;50.908;6.974;2023-08-24T16:11:00;24.60;99.90
8231;DHT22;4156;50.908;6.974;2023-08-24T16:13:25;24.60;99.90
8231;DHT22;4156;50.908;6.974;2023-08-24T16:15:51;24.60;99.90